• Join FlightAware (Why Join?)
  • Login
  • US Flag 
Rudolph Flight #1: Arrived! 
01:59PM EST


 

Airport Tracker/Info


-or-


 

Live Flight TrackerFlight Track Log ✈ N725QS ✈ 27-Apr-2012 ✈ KAUS - KAGC

Flight Track Log - Related Links

Times and Time Zones

All times are in EDT time to prevent confusion due to time zone crossing. See the N725QS flight status page for this flight to view local times or setup timezone preferences in your user account.

Time Position Orientation Groundspeed Altitude Reporting Facility
EDT Latitude Longitude Course Direction KTS MPH feet Rate Location/Type
11:36AM 30.2423 -97.4988 192° South  Level FlightAware Approximate
11:37AM 30.1592 -97.5186 54° Northeast 304 350 9,100  Level Houston Center
11:38AM 30.2150 -97.4306 54° Northeast 325 374 11,600 2,580 Climbing Houston Center
11:39AM 30.2756 -97.3331 55° Northeast 356 410 14,400 2,940 Climbing Houston Center
11:40AM 30.3428 -97.2211 86° East 380 437 18,100 3,060 Climbing Houston Center
11:41AM 30.3500 -97.0917 93° East 386 444 21,100 2,880 Climbing Houston Center
11:42AM 30.3431 -96.9519 83° East 386 444 23,900 2,640 Climbing Houston Center
11:43AM 30.3567 -96.8181 82° East 405 466 26,400 2,460 Climbing Houston Center
11:44AM 30.3744 -96.6794 84° East 422 486 28,900 2,220 Climbing Houston Center
11:45AM 30.3878 -96.5428 62° Northeast 422 486 30,900 1,740 Climbing Houston Center
11:46AM 30.4442 -96.4203 49° Northeast 434 499 32,400 1,500 Climbing Houston Center
11:47AM 30.5272 -96.3108 48° Northeast 434 499 33,900 1,500 Climbing Houston Center
11:48AM 30.6125 -96.2014 41° Northeast 447 514 35,400 1,500 Climbing Houston Center
11:49AM 30.7075 -96.1044 38° Northeast 447 514 36,900 1,380 Climbing Houston Center
11:50AM 30.8000 -96.0189 39° Northeast 442 509 38,200 1,020 Climbing Houston Center
11:51AM 30.8967 -95.9264 40° Northeast 442 509 39,000 360 Climbing Houston Center
11:52AM 31.0008 -95.8261 39° Northeast 467 537 39,000  Level Fort Worth Center
11:53AM 31.1122 -95.7197 38° Northeast 480 552 39,000  Level Fort Worth Center
11:54AM 31.2172 -95.6231 38° Northeast 480 552 39,000  Level Fort Worth Center
11:55AM 31.3183 -95.5289 39° Northeast 474 545 39,000  Level Fort Worth Center
11:56AM 31.4233 -95.4292 39° Northeast 474 545 39,000  Level Fort Worth Center
11:57AM 31.5239 -95.3319 37° Northeast 474 545 39,000  Level Fort Worth Center
11:58AM 31.6269 -95.2419 39° Northeast 462 532 39,000  Level Fort Worth Center
11:59AM 31.7317 -95.1419 40° Northeast 467 537 39,000  Level Fort Worth Center
12:00PM 31.8342 -95.0414 39° Northeast 472 543 39,000  Level Fort Worth Center
12:01PM 31.9367 -94.9433 40° Northeast 472 543 39,000  Level Fort Worth Center
12:02PM 32.0389 -94.8425 40° Northeast 472 543 39,000  Level Fort Worth Center
12:03PM 32.1372 -94.7467 41° Northeast 467 537 39,000  Level Fort Worth Center
12:04PM 32.2353 -94.6456 39° Northeast 467 537 39,000  Level Fort Worth Center
12:05PM 32.3372 -94.5464 40° Northeast 467 537 39,000  Level Fort Worth Center
12:06PM 32.4394 -94.4447 39° Northeast 467 537 39,000  Level Fort Worth Center
12:07PM 32.5433 -94.3453 39° Northeast 472 543 39,000  Level Fort Worth Center
12:08PM 32.6475 -94.2456 40° Northeast 472 543 39,000  Level Fort Worth Center
12:09PM 32.7492 -94.1431 40° Northeast 472 543 39,000  Level Fort Worth Center
12:10PM 32.8508 -94.0431 40° Northeast 472 543 39,000  Level Fort Worth Center
12:11PM 32.9525 -93.9400 41° Northeast 472 543 39,000  Level Fort Worth Center
12:12PM 33.0519 -93.8372 44° Northeast 472 543 39,000  Level Fort Worth Center
12:13PM 33.1508 -93.7239 43° Northeast 472 543 39,000  Level Fort Worth Center
12:15PM 33.3592 -93.4911 44° Northeast 465 535 39,000  Level Memphis Center
12:16PM 33.4558 -93.3800 44° Northeast 465 535 39,000  Level Memphis Center
12:17PM 33.5544 -93.2661 44° Northeast 477 549 39,000  Level Memphis Center
12:18PM 33.6511 -93.1547 43° Northeast 477 549 39,000  Level Memphis Center
12:19PM 33.7494 -93.0428 44° Northeast 477 549 39,000  Level Memphis Center
12:20PM 33.8478 -92.9283 43° Northeast 477 549 39,000  Level Memphis Center
12:21PM 33.9439 -92.8186 45° Northeast 477 549 39,000  Level Memphis Center
12:22PM 34.0381 -92.7058 46° Northeast 477 549 39,000  Level Memphis Center
12:23PM 34.1297 -92.5931 44° Northeast 472 543 39,000  Level Memphis Center
12:24PM 34.2258 -92.4800 45° Northeast 472 543 39,000  Level Memphis Center
12:25PM 34.3214 -92.3642 45° Northeast 477 549 39,000  Level Memphis Center
12:26PM 34.4150 -92.2503 44° Northeast 477 549 39,000  Level Memphis Center
12:27PM 34.5128 -92.1342 45° Northeast 477 549 39,000  Level Memphis Center
12:28PM 34.6061 -92.0200 45° Northeast 477 549 39,000  Level Memphis Center
12:29PM 34.6994 -91.9056 44° Northeast 477 549 39,000  Level Memphis Center
12:30PM 34.7947 -91.7936 45° Northeast 477 549 39,000  Level Memphis Center
12:31PM 34.8897 -91.6786 45° Northeast 477 549 39,000  Level Memphis Center
12:32PM 34.9828 -91.5661 45° Northeast 477 549 39,000  Level Memphis Center
12:33PM 35.0797 -91.4483 46° Northeast 477 549 39,000  Level Memphis Center
12:34PM 35.1725 -91.3325 45° Northeast 477 549 39,000  Level Memphis Center
12:35PM 35.2672 -91.2167 45° Northeast 477 549 39,000  Level Memphis Center
12:36PM 35.3619 -91.1006 43° Northeast 477 549 39,000  Level Memphis Center
12:37PM 35.4522 -90.9969 45° Northeast 482 555 39,000  Level Memphis Center
12:38PM 35.5444 -90.8828 45° Northeast 482 555 39,000  Level Memphis Center
12:39PM 35.6428 -90.7633 48° Northeast 489 563 39,000  Level Memphis Center
12:40PM 35.7286 -90.6461 47° Northeast 472 543 39,000  Level Memphis Center
12:41PM 35.8208 -90.5233 62° Northeast 472 543 39,000  Level Memphis Center
12:42PM 35.8856 -90.3750 65° Northeast 478 550 39,000  Level Memphis Center
12:43PM 35.9439 -90.2236 62° Northeast 483 556 39,000  Level Memphis Center
12:44PM 36.0081 -90.0722 65° Northeast 483 556 39,000  Level Memphis Center
12:45PM 36.0661 -89.9178 64° Northeast 488 562 39,000  Level Memphis Center
12:46PM 36.1258 -89.7633 65° Northeast 488 562 39,000  Level Memphis Center
12:47PM 36.1833 -89.6114 65° Northeast 488 562 39,000  Level Memphis Center
12:48PM 36.2428 -89.4511 66° East 488 562 39,000  Level Memphis Center
12:49PM 36.3000 -89.2908 64° Northeast 488 562 39,000  Level Memphis Center
12:50PM 36.3650 -89.1275 64° Northeast 501 577 39,000  Level Memphis Center
12:51PM 36.4261 -88.9744 65° Northeast 507 583 39,000  Level Memphis Center
12:52PM 36.4867 -88.8161 64° Northeast 507 583 39,000  Level Memphis Center
12:53PM 36.5472 -88.6600 65° Northeast 507 583 39,000  Level Memphis Center
12:54PM 36.6075 -88.5011 66° East 502 578 39,000  Level Memphis Center
12:55PM 36.6633 -88.3419 65° Northeast 502 578 39,000  Level Memphis Center
12:56PM 36.7231 -88.1850 67° East 502 578 39,000  Level Memphis Center
12:57PM 36.7844 -88.0072 65° Northeast 502 578 39,000  Level Memphis Center
12:58PM 36.8439 -87.8500 66° East 507 583 39,000  Level Memphis Center
12:59PM 36.9011 -87.6900 67° East 501 577 39,000  Level Memphis Center
01:00PM 36.9519 -87.5428 61° Northeast 501 577 39,000  Level Memphis Center
01:01PM 37.0192 -87.3897 57° Northeast 501 577 39,000  Level Memphis Center
01:02PM 37.0950 -87.2439 58° Northeast 501 577 39,000  Level Memphis Center
01:05PM 37.2694 -86.8950 57° Northeast 496 571 39,000  Level Indianapolis Center
01:06PM 37.3467 -86.7444 59° Northeast 503 579 39,000  Level Indianapolis Center
01:07PM 37.4108 -86.6111 59° Northeast 503 579 39,000  Level Indianapolis Center
01:08PM 37.4836 -86.4597 57° Northeast 503 579 39,000  Level Indianapolis Center
01:09PM 37.5581 -86.3133 61° Northeast 508 585 39,000  Level Indianapolis Center
01:10PM 37.6261 -86.1611 58° Northeast 503 579 39,000  Level Indianapolis Center
01:11PM 37.7003 -86.0114 58° Northeast 503 579 39,000  Level Indianapolis Center
01:12PM 37.7742 -85.8589 59° Northeast 503 579 39,000  Level Indianapolis Center
01:13PM 37.8458 -85.7083 59° Northeast 503 579 39,000  Level Indianapolis Center
01:14PM 37.9153 -85.5603 57° Northeast 503 579 39,000  Level Indianapolis Center
01:15PM 37.9908 -85.4097 59° Northeast 503 579 39,000  Level Indianapolis Center
01:16PM 38.0619 -85.2611 60° Northeast 498 573 39,000  Level Indianapolis Center
01:17PM 38.1392 -85.0939 58° Northeast 498 573 39,000  Level Indianapolis Center
01:18PM 38.2119 -84.9447 60° Northeast 493 567 39,000  Level Indianapolis Center
01:19PM 38.2783 -84.7953 59° Northeast 488 562 39,000  Level Indianapolis Center
01:20PM 38.3508 -84.6428 60° Northeast 493 567 39,000 -60 Level Indianapolis Center
01:22PM 38.4844 -84.3478 60° Northeast 504 580 38,900 -480 Descending Indianapolis Center
01:23PM 38.5542 -84.1944 58° Northeast 504 580 37,700 -1,200 Descending Indianapolis Center
01:24PM 38.6281 -84.0408 61° Northeast 504 580 36,600 -1,200 Descending Indianapolis Center
01:25PM 38.6911 -83.8975 62° Northeast 481 554 35,400 -1,260 Descending Indianapolis Center
01:26PM 38.7539 -83.7486 59° Northeast 474 545 34,100 -1,200 Descending Indianapolis Center
01:27PM 38.8208 -83.6050 60° Northeast 474 545 33,000 -600 Descending Indianapolis Center
01:28PM 38.8875 -83.4556 61° Northeast 466 536 33,000  Level Indianapolis Center
01:29PM 38.9542 -83.3033 58° Northeast 471 542 33,000  Level Indianapolis Center
01:30PM 39.0244 -83.1561 63° Northeast 477 549 33,000 -600 Level Indianapolis Center
01:31PM 39.0886 -82.9925 69° East 488 562 31,800 -1,560 Descending Indianapolis Center
01:32PM 39.1417 -82.8181 75° East 502 578 29,900 -1,920 Descending Indianapolis Center
01:33PM 39.1800 -82.6381 77° East 513 590 28,000 -1,920 Descending Indianapolis Center
01:34PM 39.2119 -82.4528 78° East 526 605 26,100 -1,800 Descending Indianapolis Center
01:35PM 39.2414 -82.2756 77° East 520 598 24,500 -1,560 Descending Indianapolis Center
01:36PM 39.2728 -82.0978 59° Northeast 509 586 23,000 -1,560 Descending Indianapolis Center
01:37PM 39.3397 -81.9542 52° Northeast 484 557 21,400 -1,020 Descending Indianapolis Center
01:38PM 39.4211 -81.8206 51° Northeast 466 536 21,000 -240 Descending Indianapolis Center
01:39PM 39.5025 -81.6894 53° Northeast 466 536 21,000  Level Indianapolis Center
01:40PM 39.5817 -81.5553 53° Northeast 461 531 21,000  Level Indianapolis Center
01:41PM 39.6703 -81.4003 52° Northeast 453 521 21,000 -960 Level Cleveland Center
01:42PM 39.7503 -81.2689 52° Northeast 453 521 19,100 -1,800 Descending Cleveland Center
01:43PM 39.8239 -81.1453 52° Northeast 448 516 17,400 -1,800 Descending Cleveland Center
01:44PM 39.8953 -81.0242 51° Northeast 436 502 15,500 -1,800 Descending Cleveland Center
01:45PM 39.9644 -80.9108 51° Northeast 415 478 13,800 -1,740 Descending Cleveland Center
01:46PM 40.0314 -80.8028 45° Northeast 403 464 12,100 -1,620 Descending Cleveland Center
01:47PM 40.1047 -80.7053 72° East 383 441 10,600 -1,140 Descending Cleveland Center
01:48PM 40.1358 -80.5803 75° East 347 399 9,900 -600 Descending Cleveland Center
01:49PM 40.1589 -80.4689 74° East 341 392 9,400 -780 Descending Cleveland Center
01:50PM 40.1817 -80.3631 80° East 318 366 8,400 -1,140 Descending Cleveland Center
01:51PM 40.1958 -80.2597 81° East 297 342 7,200 -1,380 Descending Cleveland Center
01:52PM 40.2081 -80.1589 80° East 291 335 5,700 -1,500 Descending Cleveland Center
01:53PM 40.2203 -80.0639 81° East 273 314 4,200 -1,380 Descending Cleveland Center
01:54PM 40.2322 -79.9658 58° Northeast 273 314 3,000 -600 Descending Cleveland Center
01:55PM 40.2653 -79.8975 58° Northeast 249 287 3,000  Level Cleveland Center